createdAt,value
2022-12-08T00:00:18.826Z,43.83
2022-12-08T00:03:39.046Z,43.67
2022-12-08T00:07:03.041Z,42.67
2022-12-08T00:10:48.061Z,42.13
2022-12-08T00:13:52.302Z,38.03
2022-12-08T00:17:05.941Z,40.97
2022-12-08T00:20:09.491Z,42.72
2022-12-08T00:23:23.557Z,41.10
2022-12-08T00:26:39.650Z,38.85
2022-12-08T00:30:00.961Z,39.30
2022-12-08T00:33:17.602Z,38.72
2022-12-08T00:36:39.714Z,42.30
2022-12-08T00:40:03.002Z,36.90
2022-12-08T00:43:31.517Z,39.25
2022-12-08T00:46:54.679Z,39.17
2022-12-08T00:50:16.677Z,39.22
2022-12-08T00:53:38.537Z,38.15
2022-12-08T00:57:01.515Z,36.10
2022-12-08T01:00:23.605Z,39.55
2022-12-08T01:03:46.682Z,41.42
2022-12-08T01:07:09.447Z,35.38
2022-12-08T01:10:28.698Z,35.40
2022-12-08T01:13:49.551Z,39.20
2022-12-08T01:17:08.367Z,37.05
2022-12-08T01:20:31.510Z,38.53
2022-12-08T01:23:59.612Z,42.25
2022-12-08T01:27:23.581Z,42.35
2022-12-08T01:30:46.620Z,43.40
2022-12-08T01:34:10.016Z,40.42
2022-12-08T01:37:27.609Z,41.72
2022-12-08T01:40:30.431Z,41.15
2022-12-08T01:44:11.163Z,44.80
2022-12-08T01:47:33.522Z,50.30
2022-12-08T01:50:51.535Z,43.17
2022-12-08T01:54:03.524Z,45.95
2022-12-08T01:57:37.406Z,48.70
2022-12-08T02:00:58.583Z,49.90
2022-12-08T02:04:21.354Z,52.63
2022-12-08T02:07:46.653Z,49.35
2022-12-08T02:10:54.895Z,52.42
2022-12-08T02:14:00.817Z,46.63
2022-12-08T02:17:42.968Z,48.00
2022-12-08T02:20:55.806Z,48.17
2022-12-08T02:24:21.512Z,50.20
2022-12-08T02:28:11.449Z,52.47
2022-12-08T02:31:17.729Z,53.42
2022-12-08T02:35:38.290Z,50.63
2022-12-08T02:39:38.376Z,55.27
2022-12-08T02:42:56.080Z,53.95
2022-12-08T02:46:10.454Z,54.13
2022-12-08T02:49:33.435Z,56.13
2022-12-08T02:52:48.264Z,55.08
2022-12-08T02:56:05.379Z,49.90
2022-12-08T02:59:32.357Z,51.50
2022-12-08T03:03:01.406Z,58.67
2022-12-08T03:06:25.803Z,52.60
2022-12-08T03:09:41.875Z,53.03
2022-12-08T03:12:59.196Z,58.70
2022-12-08T03:16:13.637Z,60.75
2022-12-08T03:19:44.446Z,55.85
2022-12-08T03:22:49.525Z,56.10
2022-12-08T03:26:12.331Z,49.95
2022-12-08T03:29:38.159Z,53.03
2022-12-08T03:33:18.393Z,45.35
2022-12-08T03:36:29.323Z,44.25
2022-12-08T03:39:49.243Z,44.65
2022-12-08T03:43:09.176Z,39.80
2022-12-08T03:49:55.148Z,43.85
2022-12-08T03:53:18.076Z,38.90
2022-12-08T03:56:39.352Z,41.47
2022-12-08T03:59:55.297Z,42.70
2022-12-08T04:03:15.187Z,39.43
2022-12-08T04:06:39.202Z,41.25
2022-12-08T04:09:59.222Z,41.40
2022-12-08T04:13:15.339Z,40.58
2022-12-08T04:16:29.687Z,40.65
2022-12-08T04:19:33.326Z,44.30
2022-12-08T04:22:53.816Z,41.40
2022-12-08T04:26:14.629Z,40.45
2022-12-08T04:29:35.816Z,40.25
2022-12-08T04:32:47.494Z,43.75
2022-12-08T04:36:11.717Z,40.53
2022-12-08T04:39:35.934Z,44.90
2022-12-08T04:43:04.074Z,42.47
2022-12-08T04:46:30.910Z,41.05
2022-12-08T04:49:46.935Z,37.55
2022-12-08T04:53:01.782Z,40.03
2022-12-08T04:56:31.908Z,45.03
2022-12-08T04:59:52.068Z,42.72
2022-12-08T05:03:14.177Z,40.70
2022-12-08T05:06:50.208Z,41.45
2022-12-08T05:10:10.355Z,37.47
2022-12-08T05:13:26.014Z,39.95
2022-12-08T05:16:46.075Z,42.22
2022-12-08T05:20:07.241Z,44.15
2022-12-08T05:23:28.969Z,43.92
2022-12-08T05:26:58.163Z,39.67
2022-12-08T05:30:01.131Z,44.35
2022-12-08T05:33:05.285Z,42.38
2022-12-08T05:36:16.595Z,43.72
2022-12-08T05:39:39.836Z,40.42
2022-12-08T05:43:00.600Z,46.67
2022-12-08T05:46:04.003Z,45.50
2022-12-08T05:49:19.945Z,44.45
2022-12-08T05:52:29.665Z,42.92
2022-12-08T05:55:38.860Z,47.33
2022-12-08T05:59:01.808Z,48.40
2022-12-08T06:02:29.931Z,47.55
2022-12-08T06:05:45.018Z,47.10
2022-12-08T06:08:57.119Z,52.92
2022-12-08T06:12:13.589Z,50.20
2022-12-08T06:15:24.803Z,55.53
2022-12-08T06:18:32.580Z,49.20
2022-12-08T06:21:50.902Z,52.35
2022-12-08T06:25:10.229Z,52.70
2022-12-08T06:28:20.266Z,49.83
2022-12-08T06:31:37.118Z,52.00
2022-12-08T06:34:53.643Z,55.30
2022-12-08T06:38:33.716Z,60.38
2022-12-08T06:42:30.802Z,51.67
2022-12-08T06:45:52.829Z,72.35
2022-12-08T06:48:59.105Z,51.20
2022-12-08T06:57:30.068Z,49.90
2022-12-08T07:00:37.648Z,50.60
2022-12-08T07:03:55.714Z,47.55
2022-12-08T07:07:22.164Z,42.17
2022-12-08T07:10:42.880Z,43.88
2022-12-08T07:14:00.763Z,43.33
2022-12-08T07:17:12.204Z,43.70
2022-12-08T07:20:37.693Z,39.70
2022-12-08T07:24:10.558Z,43.17
2022-12-08T07:28:07.346Z,41.78
2022-12-08T07:31:28.067Z,42.38
2022-12-08T07:34:40.445Z,41.38
2022-12-08T07:39:04.082Z,40.85
2022-12-08T07:42:14.166Z,42.07
2022-12-08T07:45:28.345Z,41.30
2022-12-08T07:48:55.835Z,41.90
2022-12-08T07:53:37.896Z,45.45
2022-12-08T08:02:27.947Z,44.87
2022-12-08T08:06:05.466Z,51.05
2022-12-08T08:09:12.011Z,50.75
2022-12-08T08:12:41.810Z,52.17
2022-12-08T08:16:04.618Z,53.97
2022-12-08T08:19:11.795Z,49.73
2022-12-08T08:23:26.947Z,49.85
2022-12-08T08:26:47.213Z,55.17
2022-12-08T08:29:59.640Z,52.22
2022-12-08T08:33:23.307Z,50.60
2022-12-08T08:36:44.048Z,54.43
2022-12-08T08:40:18.049Z,56.78
2022-12-08T08:43:49.245Z,52.65
2022-12-08T08:47:45.162Z,49.00
2022-12-08T08:51:17.635Z,52.70
2022-12-08T08:59:50.972Z,57.95
2022-12-08T09:04:20.906Z,59.88
2022-12-08T09:08:10.469Z,52.90
2022-12-08T09:11:26.904Z,52.83
2022-12-08T09:14:47.803Z,49.60
2022-12-08T09:18:20.706Z,58.63
2022-12-08T09:22:49.273Z,59.08
2022-12-08T09:26:12.545Z,56.75
2022-12-08T09:29:48.736Z,54.97
2022-12-08T09:33:12.486Z,55.23
2022-12-08T09:37:26.862Z,57.33
2022-12-08T09:41:03.670Z,52.22
2022-12-08T09:44:35.490Z,58.85
2022-12-08T09:48:29.544Z,55.20
2022-12-08T09:52:29.199Z,55.03
2022-12-08T09:56:19.472Z,55.40
2022-12-08T09:59:44.128Z,51.40
2022-12-08T10:03:16.433Z,66.32
2022-12-08T10:07:14.637Z,53.13
2022-12-08T10:11:28.939Z,51.63
2022-12-08T10:15:29.629Z,45.78
2022-12-08T10:18:48.376Z,50.47
2022-12-08T10:22:00.267Z,48.95
2022-12-08T10:25:28.309Z,46.60
2022-12-08T10:29:31.347Z,49.07
2022-12-08T10:34:03.098Z,47.40
2022-12-08T10:38:19.327Z,49.22
2022-12-08T10:41:46.164Z,51.65
2022-12-08T10:51:32.284Z,42.70
2022-12-08T11:00:50.125Z,45.17
2022-12-08T11:04:29.469Z,49.00
2022-12-08T11:08:05.536Z,48.10
2022-12-08T11:12:06.155Z,41.40
2022-12-08T11:16:20.453Z,41.75
2022-12-08T11:20:03.891Z,39.72
2022-12-08T11:23:58.099Z,40.33
2022-12-08T11:33:27.407Z,35.70
2022-12-08T11:38:19.833Z,36.47
2022-12-08T11:42:17.322Z,35.95
2022-12-08T11:46:55.527Z,37.00
2022-12-08T11:51:40.869Z,32.17
2022-12-08T11:55:52.939Z,31.03
2022-12-08T11:59:49.239Z,24.45
2022-12-08T12:08:48.128Z,29.10
2022-12-08T12:12:52.972Z,25.15
2022-12-08T12:17:25.681Z,22.07
2022-12-08T12:21:47.265Z,21.67
2022-12-08T12:25:55.193Z,26.38
2022-12-08T12:29:38.797Z,22.75
2022-12-08T12:33:06.104Z,22.80
2022-12-08T12:36:26.651Z,37.43
2022-12-08T12:40:33.754Z,20.77
2022-12-08T12:44:27.608Z,19.77
2022-12-08T12:48:16.641Z,19.10
2022-12-08T12:51:44.732Z,20.63
2022-12-08T12:56:04.597Z,26.83
2022-12-08T13:00:03.560Z,39.67
2022-12-08T13:03:28.344Z,49.83
2022-12-08T13:06:51.124Z,46.13
2022-12-08T13:10:44.698Z,50.80
2022-12-08T13:14:08.250Z,45.90
2022-12-08T13:18:17.978Z,45.40
2022-12-08T13:22:30.954Z,44.30
2022-12-08T13:26:29.221Z,44.90
2022-12-08T13:29:47.903Z,36.35
2022-12-08T13:33:22.896Z,37.00
2022-12-08T13:37:10.959Z,39.55
2022-12-08T13:40:48.015Z,35.75
2022-12-08T13:57:58.478Z,21.30
2022-12-08T14:01:27.857Z,22.10
2022-12-08T14:09:47.155Z,23.08
2022-12-08T14:17:35.491Z,30.58
2022-12-08T14:21:24.013Z,35.08
2022-12-08T14:25:10.367Z,36.97
2022-12-08T14:28:56.568Z,36.38
2022-12-08T14:32:42.385Z,36.53
2022-12-08T14:36:20.846Z,37.55
2022-12-08T14:40:22.870Z,42.83
2022-12-08T14:43:46.268Z,48.30
2022-12-08T14:47:21.694Z,44.95
2022-12-08T14:50:51.053Z,34.60
2022-12-08T14:54:16.336Z,41.22
2022-12-08T14:57:44.161Z,38.05
2022-12-08T15:01:19.273Z,34.78
2022-12-08T15:05:03.325Z,29.92
2022-12-08T15:09:30.032Z,31.47
2022-12-08T15:13:16.547Z,32.22
2022-12-08T15:16:53.659Z,33.08
2022-12-08T15:20:39.966Z,30.35
2022-12-08T15:24:06.824Z,35.08
2022-12-08T15:27:49.881Z,31.60
2022-12-08T15:31:02.819Z,33.78
2022-12-08T15:34:20.786Z,28.55
2022-12-08T15:37:47.140Z,29.92
2022-12-08T15:41:14.857Z,29.73
2022-12-08T15:44:33.694Z,32.80
2022-12-08T15:47:47.089Z,30.23
2022-12-08T15:51:07.109Z,29.58
2022-12-08T15:54:30.369Z,29.67
2022-12-08T15:58:52.441Z,30.27
2022-12-08T16:01:28.106Z,28.13
2022-12-08T16:05:40.144Z,37.03
2022-12-08T16:08:45.181Z,32.30
2022-12-08T16:12:14.985Z,32.78
2022-12-08T16:19:14.866Z,32.77
2022-12-08T16:26:16.827Z,39.38
2022-12-08T16:29:35.195Z,31.98
2022-12-08T16:32:38.232Z,46.22
2022-12-08T16:35:42.566Z,33.77
2022-12-08T16:38:52.550Z,47.78
2022-12-08T16:42:39.518Z,38.13
2022-12-08T16:45:45.004Z,33.15
2022-12-08T16:49:08.975Z,36.95
2022-12-08T16:52:35.109Z,32.37
2022-12-08T16:55:51.886Z,34.00
2022-12-08T16:59:09.310Z,35.70
2022-12-08T17:02:26.011Z,37.55
2022-12-08T17:05:57.848Z,34.72
2022-12-08T17:09:18.703Z,34.13
2022-12-08T17:12:43.532Z,34.97
2022-12-08T17:16:02.769Z,31.70
2022-12-08T17:19:13.932Z,33.88
2022-12-08T17:22:16.914Z,30.88
2022-12-08T17:25:20.990Z,32.17
2022-12-08T17:28:59.043Z,34.20
2022-12-08T17:32:19.688Z,31.00
2022-12-08T17:35:39.479Z,31.95
2022-12-08T17:38:50.510Z,39.92
2022-12-08T17:42:05.960Z,33.37
2022-12-08T17:45:22.302Z,32.15
2022-12-08T17:48:31.401Z,31.90
2022-12-08T17:51:46.672Z,29.25
2022-12-08T17:54:54.300Z,29.98
2022-12-08T17:58:11.056Z,33.57
2022-12-08T18:01:15.811Z,31.95
2022-12-08T18:04:20.701Z,29.63
2022-12-08T18:07:26.846Z,31.33
2022-12-08T18:10:48.293Z,37.28
2022-12-08T18:14:17.817Z,39.10
2022-12-08T18:17:40.798Z,36.60
2022-12-08T18:21:05.014Z,32.45
2022-12-08T18:24:24.676Z,32.78
2022-12-08T18:27:43.187Z,31.35
2022-12-08T18:30:55.489Z,29.57
2022-12-08T18:34:11.951Z,34.53
2022-12-08T18:37:41.071Z,24.75
2022-12-08T18:41:17.019Z,29.73
2022-12-08T18:44:38.435Z,27.02
2022-12-08T18:48:02.429Z,27.63
2022-12-08T18:51:21.540Z,25.27
2022-12-08T18:54:58.164Z,23.50
2022-12-08T18:58:06.763Z,25.40
2022-12-08T19:01:22.704Z,25.35
2022-12-08T19:04:48.303Z,31.03
2022-12-08T19:08:00.423Z,26.73
2022-12-08T19:11:29.262Z,29.48
2022-12-08T19:14:51.644Z,28.52
2022-12-08T19:18:11.736Z,27.02
2022-12-08T19:21:40.127Z,24.90
2022-12-08T19:24:50.947Z,22.60
2022-12-08T19:28:00.503Z,26.88
2022-12-08T19:31:14.377Z,27.35
2022-12-08T19:34:19.294Z,25.08
2022-12-08T19:37:25.122Z,25.00
2022-12-08T19:40:47.299Z,24.60
2022-12-08T19:44:15.932Z,25.55
2022-12-08T19:47:30.915Z,24.92
2022-12-08T19:50:37.887Z,30.50
2022-12-08T19:53:49.162Z,26.23
2022-12-08T19:57:10.463Z,31.55
2022-12-08T20:00:28.613Z,26.92
2022-12-08T20:03:51.562Z,28.52
2022-12-08T20:07:14.565Z,27.60
2022-12-08T20:10:37.629Z,32.60
2022-12-08T20:13:54.540Z,27.95
2022-12-08T20:17:19.516Z,28.70
2022-12-08T20:20:42.482Z,28.20
2022-12-08T20:24:03.866Z,27.63
2022-12-08T20:27:31.804Z,27.97
2022-12-08T20:30:51.687Z,29.10
2022-12-08T20:34:08.562Z,27.25
2022-12-08T20:37:33.466Z,28.02
2022-12-08T20:40:51.651Z,27.48
2022-12-08T20:44:12.455Z,34.63
2022-12-08T20:47:39.416Z,32.42
2022-12-08T20:51:01.544Z,31.75
2022-12-08T20:54:11.500Z,29.88
2022-12-08T20:57:34.429Z,29.95
2022-12-08T21:01:00.850Z,40.03
2022-12-08T21:04:20.655Z,31.33
2022-12-08T21:07:47.568Z,31.95
2022-12-08T21:11:12.512Z,32.97
2022-12-08T21:14:30.679Z,31.65
2022-12-08T21:17:34.927Z,33.00
2022-12-08T21:20:43.424Z,30.38
2022-12-08T21:23:57.113Z,33.15
2022-12-08T21:27:07.024Z,29.52
2022-12-08T21:30:17.208Z,32.28
2022-12-08T21:33:21.273Z,34.17
2022-12-08T21:36:28.354Z,30.90
2022-12-08T21:39:43.889Z,30.02
2022-12-08T21:42:57.649Z,31.35
2022-12-08T21:46:00.837Z,32.03
2022-12-08T21:49:11.405Z,34.93
2022-12-08T21:52:34.369Z,30.67
2022-12-08T21:55:56.347Z,31.48
2022-12-08T21:59:23.315Z,35.33
2022-12-08T22:02:45.898Z,31.80
2022-12-08T22:05:55.272Z,33.87
2022-12-08T22:08:58.471Z,31.55
2022-12-08T22:12:17.952Z,35.67
2022-12-08T22:15:21.451Z,33.83
2022-12-08T22:18:45.465Z,34.95
2022-12-08T22:22:05.936Z,36.60
2022-12-08T22:25:31.781Z,38.63
2022-12-08T22:28:56.593Z,32.10
2022-12-08T22:32:28.100Z,33.50
2022-12-08T22:36:11.409Z,35.38
2022-12-08T22:39:37.093Z,34.73
2022-12-08T22:43:12.155Z,37.55
2022-12-08T22:46:28.198Z,35.33
2022-12-08T22:49:32.496Z,33.90
2022-12-08T22:52:36.631Z,34.33
2022-12-08T22:55:51.798Z,37.70
2022-12-08T22:58:59.136Z,38.20
2022-12-08T23:02:03.147Z,37.60
2022-12-08T23:05:10.524Z,34.70
2022-12-08T23:08:23.221Z,35.60
2022-12-08T23:11:39.416Z,35.10
2022-12-08T23:15:05.111Z,35.53
2022-12-08T23:18:29.008Z,40.13
2022-12-08T23:21:49.292Z,39.35
2022-12-08T23:25:12.152Z,37.38
2022-12-08T23:28:25.782Z,38.47
2022-12-08T23:31:33.441Z,38.10
2022-12-08T23:34:43.526Z,40.50
2022-12-08T23:37:54.847Z,41.08
2022-12-08T23:41:17.322Z,38.00
2022-12-08T23:44:45.109Z,42.53
2022-12-08T23:48:09.934Z,39.33
2022-12-08T23:51:26.195Z,40.72
2022-12-08T23:54:40.730Z,39.88
2022-12-08T23:58:05.128Z,40.53
